»·PEaware :: N286WF KSMX-KAVX

N286WF :: KSMX-KAVX

FLIGHT INFORMATION

Flight Status: Arrived
Operator: Privately registered:
United States
More flights under this callsign
Pilot: Frank W. (16848)
Aircraft: Unknown
(P28U)
More flights by this aircraft type
Origin: KSMX Santa Maria Pub/Capt Hancock
United States
Destination: KAVX Catalina
United States
More flights between these airports :: More routes between these airports
Route: RZS EXERT PAROL
File this flight plan on PilotEdge
Remarks: Will request Advisories in route
Altitude:
(Current/Filed)
10,500ft
Speed:
(Current/Filed)
140kts
Departed: 10-Oct-19 02:20 PM
Arrived: 10-Oct-19 03:20 PM
Distance/Time
Traveled:
135nm/1:00
Distance/Time
To Go:
Arrived

Flight Plot

Page will automatically refresh every two minutes.


Map Options




Map Legend


Flown Route
Filed Route
Departure Airport
Arrival Airport
Navaid (VOR, NDB)
Fix

Horizontal Profiles

Position Reports

Time Latitude Longitude Heading Altitude Ground
Speed
10-Oct-19 14:01 34.895842 -120.445227 314 264ft 0kts
10-Oct-19 14:02 34.895842 -120.445227 314 264ft 0kts
10-Oct-19 14:03 34.895842 -120.445227 314 264ft 0kts
10-Oct-19 14:04 34.895842 -120.445227 314 264ft 0kts
10-Oct-19 14:05 34.895842 -120.445227 314 264ft 0kts
10-Oct-19 14:06 34.895842 -120.445227 314 264ft 0kts
10-Oct-19 14:07 34.895842 -120.445227 314 264ft 0kts
10-Oct-19 14:08 34.895842 -120.445227 314 264ft 0kts
10-Oct-19 14:09 34.895842 -120.445227 314 264ft 0kts
10-Oct-19 14:10 34.895842 -120.445227 314 264ft 0kts
10-Oct-19 14:11 34.895842 -120.445227 314 264ft 0kts
10-Oct-19 14:12 34.895842 -120.445227 314 264ft 0kts
10-Oct-19 14:13 34.895553 -120.445136 211 264ft 3kts
10-Oct-19 14:14 34.894345 -120.445240 127 264ft 9kts
10-Oct-19 14:15 34.893860 -120.444955 295 264ft 0kts
10-Oct-19 14:16 34.893860 -120.444955 295 264ft 0kts
10-Oct-19 14:17 34.893911 -120.445177 213 264ft 4kts
10-Oct-19 14:18 34.893313 -120.445218 177 264ft 2kts
10-Oct-19 14:19 34.895687 -120.449305 317 326ft 72kts
10-Oct-19 14:20 34.900629 -120.469523 190 1478ft 106kts
10-Oct-19 14:21 34.882240 -120.441979 108 2907ft 114kts
10-Oct-19 14:22 34.867086 -120.407719 121 4367ft 117kts
10-Oct-19 14:23 34.848637 -120.374491 120 5773ft 120kts
10-Oct-19 14:24 34.829634 -120.340775 119 7086ft 122kts
10-Oct-19 14:25 34.811193 -120.308212 118 8437ft 119kts
10-Oct-19 14:26 34.792332 -120.274868 117 9716ft 120kts
10-Oct-19 14:27 34.772363 -120.239858 122 10558ft 140kts
10-Oct-19 14:28 34.747500 -120.197188 121 10701ft 158kts
10-Oct-19 14:29 34.721397 -120.151032 121 10527ft 171kts
10-Oct-19 14:30 34.695526 -120.105222 121 10525ft 163kts
10-Oct-19 14:31 34.669759 -120.059780 121 10525ft 162kts
10-Oct-19 14:32 34.643769 -120.014480 121 10525ft 162kts
10-Oct-19 14:33 34.617089 -119.969702 125 10526ft 163kts
10-Oct-19 14:34 34.588995 -119.926245 122 10513ft 163kts
10-Oct-19 14:35 34.562505 -119.880898 121 10480ft 163kts
10-Oct-19 14:36 34.536501 -119.835526 121 10480ft 162kts
10-Oct-19 14:37 34.510557 -119.790200 121 10480ft 162kts
10-Oct-19 14:38 34.482863 -119.746991 125 10476ft 163kts
10-Oct-19 14:39 34.454122 -119.704142 125 10482ft 163kts
10-Oct-19 14:40 34.425331 -119.661364 125 10482ft 163kts
10-Oct-19 14:41 34.396765 -119.619248 125 10473ft 159kts
10-Oct-19 14:42 34.368457 -119.577159 125 10522ft 161kts
10-Oct-19 14:43 34.339911 -119.535366 125 10484ft 161kts
10-Oct-19 14:44 34.311581 -119.493743 125 10488ft 159kts
10-Oct-19 14:45 34.283339 -119.451873 124 10430ft 161kts
10-Oct-19 14:46 34.255080 -119.410140 124 10426ft 159kts
10-Oct-19 14:47 34.226820 -119.368685 125 10425ft 159kts
10-Oct-19 14:48 34.198553 -119.327222 125 10425ft 159kts
10-Oct-19 14:49 34.171003 -119.286798 125 10425ft 159kts
10-Oct-19 14:50 34.142631 -119.245172 125 10427ft 159kts
10-Oct-19 14:51 34.114386 -119.203721 125 10428ft 160kts
10-Oct-19 14:53 34.085955 -119.162279 125 10430ft 160kts
10-Oct-19 14:54 34.057544 -119.120858 125 10432ft 160kts
10-Oct-19 14:55 34.029369 -119.079588 126 10423ft 158kts
10-Oct-19 14:56 34.001618 -119.039332 126 10425ft 157kts
10-Oct-19 14:57 33.973871 -118.998978 126 10425ft 156kts
10-Oct-19 14:58 33.946217 -118.958742 126 10425ft 155kts
10-Oct-19 14:59 33.918437 -118.919019 126 10425ft 153kts
10-Oct-19 15:00 33.895606 -118.886043 126 10451ft 152kts
10-Oct-19 15:01 33.868360 -118.849748 139 10448ft 153kts
10-Oct-19 15:02 33.832723 -118.818478 142 10447ft 156kts
10-Oct-19 15:03 33.796716 -118.787514 141 10444ft 157kts
10-Oct-19 15:04 33.763070 -118.753968 140 10440ft 151kts
10-Oct-19 15:05 33.728603 -118.723714 142 10074ft 154kts
10-Oct-19 15:06 33.695504 -118.695414 141 9702ft 146kts
10-Oct-19 15:07 33.661396 -118.666246 142 8931ft 147kts
10-Oct-19 15:08 33.628533 -118.638173 142 7939ft 144kts
10-Oct-19 15:08 33.601503 -118.614684 141 7051ft 144kts
10-Oct-19 15:10 33.571194 -118.573123 121 5821ft 137kts
10-Oct-19 15:11 33.549198 -118.536001 118 4842ft 136kts
10-Oct-19 15:12 33.531920 -118.498433 123 4301ft 125kts
10-Oct-19 15:12 33.514393 -118.473462 142 4406ft 119kts
10-Oct-19 15:13 33.476505 -118.472398 195 4331ft 140kts
10-Oct-19 15:15 33.460626 -118.461253 45 4088ft 124kts
10-Oct-19 15:15 33.444241 -118.450818 217 3740ft 159kts
10-Oct-19 15:16 33.414469 -118.460372 99 3085ft 114kts
10-Oct-19 15:17 33.416036 -118.426079 54 2178ft 115kts
10-Oct-19 15:18 33.424255 -118.400697 167 2303ft 92kts
10-Oct-19 15:19 33.405483 -118.415004 234 1537ft 21kts
10-Oct-19 15:20 33.403990 -118.415139 322 1540ft 0kts
10-Oct-19 15:21 33.403990 -118.415139 322 1540ft 0kts
10-Oct-19 15:22 33.403990 -118.415139 322 1540ft 0kts
10-Oct-19 15:23 33.403990 -118.415139 322 1540ft 0kts
10-Oct-19 15:24 33.403990 -118.415139 322 1540ft 0kts
10-Oct-19 15:25 33.403990 -118.415139 322 1540ft 0kts
10-Oct-19 15:26 33.403990 -118.415139 322 1540ft 0kts
10-Oct-19 15:27 33.403990 -118.415139 322 1540ft 0kts
10-Oct-19 15:28 33.403990 -118.415139 322 1540ft 0kts
10-Oct-19 15:29 33.403990 -118.415139 322 1540ft 0kts
10-Oct-19 15:30 33.403990 -118.415139 322 1540ft 0kts
10-Oct-19 15:31 33.403990 -118.415139 322 1540ft 0kts
10-Oct-19 15:32 33.403990 -118.415139 322 1540ft 0kts
10-Oct-19 15:33 33.403990 -118.415139 322 1540ft 0kts

Navigation Log

Ident Type
Flight plan parsing failed, navigation log unavailable